Decoded Metar for TGPY (POINT SALINES in GRENADA) (IATA:GND) | Meteo·Mobile Aviation Weather
aviador You're here:

TGPY Decoded Metar

POINT SALINES in GRENADA
Report Time2019-07-21 17:00:00
UTC Time2019-07-21 18:06:27
Flight Rules vfr VFR
Wind100° at 18 kt
W.Decomp.*RWY 10: 17.5 kt HW 4.4 kt RCW
Visibility9999 m
Phenomena:N/A
Clouds:Few 020 Hf
Expected CloudBase > 2,000 ft AGL from Temp-Dew spread
CeilingNone
Temp30°C (ISA +15)
Dew Point25°C (75% RH)
Heat Index36.3°C
QNH1014 hPa
Density Alt2,129 ft
Elevation23 ft
Report Wrong Elevation
Raw Report
TGPY 211700Z 10018KT 9999 FEW020 FEW///CB 30/25 Q1014 NOSIG
CB-ESE/S=

Extra information for TGPY:More info

Metar Taf Metar & Taf Last 4 Metars F.Rules Stats Wind Profile Meteogram Temp Stats Airport Information Weather charts Add Link Nearby VenuesMetar ALERT Operation Metar Decoded Social comments